Frank T. Stegbauer — WDE5944 — position and weather

sailwx.info

Track history (hours):
 
Tides and Currents Weather Stations Pressure Air Temp Water Temp Dewpoint Dewpoint Depression Visibility Wind Speed Wind Dir Waves Ship Positions

Frank T. Stegbauer

Owner: SOUTHERN TOWING COMPANY LLC., Memphis, TN. More information available from US FCC via Universal Licensing System and Coast Guard Vessel Documentation Center.

Last reported at 2016-Jun-15 04:18 UTC. Time now 2016-Jul-01 11:47 UTC.
Position N 32°47' W 091°09'.
Warning: this ship's position is 16 days out of date.

Length 35 m; draft 8.6 m.

Type: Tug. MMSI: 367373640.

Date/timePositionNaut miles runAvg speedWind from/ knotsBaromVisibWave heightAir tempDewpointWater temp
2016-Jun-15 04:18N 32°47' W 091°09'2 2.4
2016-Jun-15 03:33N 32°45' W 091°09'2 2.5
2016-Jun-15 02:33N 32°44' W 091°07'3 2.9
2016-Jun-15 01:27N 32°42' W 091°04'4 3.5
2016-Jun-15 00:22N 32°40' W 091°07'2 2.8
2016-Jun-14 23:32N 32°38' W 091°09'4 3.7
2016-Jun-14 22:33N 32°35' W 091°07'3 3.3
2016-Jun-14 21:33N 32°32' W 091°06'4 3.5
2016-Jun-14 20:33N 32°28' W 091°06'3 3.4
2016-Jun-14 19:33N 32°26' W 091°03'3 3.4
2016-Jun-14 18:33N 32°24' W 090°60'3 3.1
2016-Jun-14 17:34N 32°21' W 090°60'4 3.5
2016-Jun-14 16:33N 32°21' W 090°56'3 2.5
2016-Jun-14 15:33N 32°18' W 090°55'4 3.6
2016-Jun-14 14:33N 32°16' W 090°58'3 3.5
2016-Jun-14 13:33N 32°12' W 090°59'3 3.3
2016-Jun-14 12:33N 32°09' W 091°00'3 2.9
2016-Jun-14 11:33N 32°07' W 091°03'3 3.4
2016-Jun-14 10:33N 32°07' W 091°07'18 2.8
2016-Jun-14 04:04N 31°51' W 091°17'3 3.6
2016-Jun-14 03:22N 31°51' W 091°20'  
2016-Jun-08 12:31N 31°50' W 091°21'9 8.3
2016-Jun-08 11:29N 31°54' W 091°12'7 7.9
2016-Jun-08 10:33N 31°59' W 091°06'8 7.8
2016-Jun-08 09:33N 32°07' W 091°07'7 6.9
2016-Jun-08 08:33N 32°11' W 090°60'9 9.4
2016-Jun-08 07:33N 32°19' W 090°54'7 6.6
2016-Jun-08 06:33N 32°24' W 090°59'9 8.6
2016-Jun-08 05:33N 32°30' W 091°07'8 8.4
2016-Jun-08 04:33N 32°38' W 091°09'  
Track history (hours):
 
Tides and Currents Weather Stations Pressure Air Temp Water Temp Dewpoint Dewpoint Depression Visibility Wind Speed Wind Dir Waves Ship Positions

Frank T. Stegbauer

Owner: SOUTHERN TOWING COMPANY LLC., Memphis, TN. More information available from US FCC via Universal Licensing System and Coast Guard Vessel Documentation Center.

Last reported at 2016-Jun-15 04:18 UTC. Time now 2016-Jul-01 11:47 UTC.
Position N 32°47' W 091°09'.
Warning: this ship's position is 16 days out of date.

Length 35 m; draft 8.6 m.

Type: Tug. MMSI: 367373640.

Date/timePositionNaut miles runAvg speedWind from/ knotsBaromVisibWave heightAir tempDewpointWater temp
2016-Jun-15 04:18N 32°47' W 091°09'2 2.4
2016-Jun-15 03:33N 32°45' W 091°09'2 2.5
2016-Jun-15 02:33N 32°44' W 091°07'3 2.9
2016-Jun-15 01:27N 32°42' W 091°04'4 3.5
2016-Jun-15 00:22N 32°40' W 091°07'2 2.8
2016-Jun-14 23:32N 32°38' W 091°09'4 3.7
2016-Jun-14 22:33N 32°35' W 091°07'3 3.3
2016-Jun-14 21:33N 32°32' W 091°06'4 3.5
2016-Jun-14 20:33N 32°28' W 091°06'3 3.4
2016-Jun-14 19:33N 32°26' W 091°03'3 3.4
2016-Jun-14 18:33N 32°24' W 090°60'3 3.1
2016-Jun-14 17:34N 32°21' W 090°60'4 3.5
2016-Jun-14 16:33N 32°21' W 090°56'3 2.5
2016-Jun-14 15:33N 32°18' W 090°55'4 3.6
2016-Jun-14 14:33N 32°16' W 090°58'3 3.5
2016-Jun-14 13:33N 32°12' W 090°59'3 3.3
2016-Jun-14 12:33N 32°09' W 091°00'3 2.9
2016-Jun-14 11:33N 32°07' W 091°03'3 3.4
2016-Jun-14 10:33N 32°07' W 091°07'18 2.8
2016-Jun-14 04:04N 31°51' W 091°17'3 3.6
2016-Jun-14 03:22N 31°51' W 091°20'  
2016-Jun-08 12:31N 31°50' W 091°21'9 8.3
2016-Jun-08 11:29N 31°54' W 091°12'7 7.9
2016-Jun-08 10:33N 31°59' W 091°06'8 7.8
2016-Jun-08 09:33N 32°07' W 091°07'7 6.9
2016-Jun-08 08:33N 32°11' W 090°60'9 9.4
2016-Jun-08 07:33N 32°19' W 090°54'7 6.6
2016-Jun-08 06:33N 32°24' W 090°59'9 8.6
2016-Jun-08 05:33N 32°30' W 091°07'8 8.4
2016-Jun-08 04:33N 32°38' W 091°09'  

Dump ship's entire track history